Aérodrome :
LOGIN :

S'inscrire | Disclaimer

   EN    FR    IT 

 










Légende :    VFR   VFR Marginal   IFR   IFR Intensif   IFR Très Intensif
Visi : 
Plafond : 
>= 8 km
>= 3000ft
5 à 8 km
1000 à 3000 ft
1500m à 5 km
500 à 1000 ft
800 à 1500m
200 à 500 ft
< 800m
< 200 ft
Symboles :   Orages  Brouillard  Fortes neiges  Fortes précipitations  Vent > 20 kt
SIGMETs :   Divers  Orages  Givrage  Turbulence  Onde Orograph.  Cendres Volcan.






- Altitude de l'aérodrome : 49 ft
- Code IATA : AOI


LIPY - Ancona Falconara

DERNIER METAR :
  • 250850Z VRB02KT 1000 R22/P1500N BR FEW005 SCT010 BKN050 07/07 Q1025

METARs EXPIRÉS :
  • 250750Z VRB02KT 0900 R22/1400N FG FEW005 SCT050 06/06 Q1024
  • 250650Z VRB01KT 0900 R22/P1500N FG FEW010 BKN050 06/06 Q1024
  • 250550Z VRB02KT 0800 R22/1300N FG FEW010 BKN050 06/06 Q1024

TAF TAF LIPY
Valide du 25 à 06h jusqu'au 26 à 06h UTC


250500Z 2506/2606 VRB05KT 2000 BR SCT030
TEMPO 2506/2507 0600 FG
BECMG 2518/2520 0500 FG



MET'MAP, la Météo Aéronautique d'un coup d'oeil ! - Copyright ORBIFLY Décembre 2007 - Disclaimer

ORBIFLY MET'MAP TEAM :

Programmation & Développement : Alexandra Zaïnal
Sur une idée originale de : Baudouin d'Aumeries
Assistance à la programmation : Marc-Olivier Méhu
Soutien technique & logistique : Manuel Goepfert

Contact : metmap@orbifly.com




SOURCES & CREDITS :

   NOAA